createdAt,value
2023-04-29T00:00:02.526Z,13.2
2023-04-29T00:02:02.883Z,11.1
2023-04-29T00:04:03.192Z,9.1
2023-04-29T00:06:02.970Z,9.4
2023-04-29T00:08:03.457Z,10.6
2023-04-29T00:10:02.951Z,12.7
2023-04-29T00:12:02.535Z,11.3
2023-04-29T00:14:02.758Z,13.7
2023-04-29T00:16:03.389Z,11.5
2023-04-29T00:18:02.851Z,9.4
2023-04-29T00:20:02.629Z,8.8
2023-04-29T00:22:03.271Z,8.4
2023-04-29T00:24:03.211Z,10.7
2023-04-29T00:26:02.864Z,8.4
2023-04-29T00:28:03.001Z,14.1
2023-04-29T00:30:03.587Z,8.9
2023-04-29T00:32:03.005Z,9.7
2023-04-29T00:34:02.710Z,11.8
2023-04-29T00:36:03.001Z,11.8
2023-04-29T00:38:02.456Z,10.6
2023-04-29T00:40:04.574Z,10.3
2023-04-29T00:42:03.650Z,12.2
2023-04-29T00:44:03.047Z,14.7
2023-04-29T00:46:03.983Z,8.6
2023-04-29T00:48:02.455Z,9.1
2023-04-29T00:50:03.065Z,12.2
2023-04-29T00:52:02.505Z,11.0
2023-04-29T00:54:04.041Z,13.2
2023-04-29T00:56:03.458Z,9.8
2023-04-29T00:58:03.784Z,12.2
2023-04-29T01:00:03.486Z,9.8
2023-04-29T01:02:06.127Z,10.0
2023-04-29T01:04:05.102Z,9.4
2023-04-29T01:06:14.036Z,8.6
2023-04-29T01:08:14.609Z,11.2
2023-04-29T01:10:09.849Z,11.0
2023-04-29T01:12:11.613Z,8.4
2023-04-29T01:14:04.087Z,11.2
2023-04-29T01:16:04.347Z,9.2
2023-04-29T01:18:12.174Z,10.8
2023-04-29T01:20:04.805Z,10.1
2023-04-29T01:22:02.761Z,13.5
2023-04-29T01:24:03.535Z,10.5
2023-04-29T01:26:05.029Z,11.0
2023-04-29T01:28:12.335Z,10.5
2023-04-29T01:30:11.953Z,10.6
2023-04-29T01:32:08.376Z,10.5
2023-04-29T01:34:10.273Z,10.7
2023-04-29T01:36:13.602Z,10.5
2023-04-29T01:38:14.266Z,11.4
2023-04-29T01:40:10.058Z,14.6
2023-04-29T01:42:11.107Z,9.7
2023-04-29T01:44:03.870Z,11.5
2023-04-29T01:46:04.281Z,14.8
2023-04-29T01:48:04.426Z,9.0
2023-04-29T01:50:03.355Z,10.1
2023-04-29T01:52:02.903Z,11.3
2023-04-29T01:54:04.583Z,10.0
2023-04-29T01:56:03.053Z,11.3
2023-04-29T01:58:02.513Z,10.7
2023-04-29T02:00:04.272Z,10.2
2023-04-29T02:02:02.388Z,9.6
2023-04-29T02:04:03.613Z,11.6
2023-04-29T02:06:02.633Z,11.9
2023-04-29T02:08:03.424Z,16.0
2023-04-29T02:10:02.654Z,13.3
2023-04-29T02:12:04.117Z,11.2
2023-04-29T02:14:02.623Z,12.0
2023-04-29T02:16:08.423Z,11.3
2023-04-29T02:18:03.268Z,10.4
2023-04-29T02:20:02.950Z,16.0
2023-04-29T02:22:02.699Z,10.1
2023-04-29T02:24:03.374Z,11.0
2023-04-29T02:26:05.014Z,11.9
2023-04-29T02:28:03.019Z,14.9
2023-04-29T02:30:04.262Z,13.3
2023-04-29T02:32:02.946Z,11.6
2023-04-29T02:34:02.478Z,12.1
2023-04-29T02:36:03.483Z,13.9
2023-04-29T02:38:02.607Z,14.6
2023-04-29T02:40:03.204Z,12.6
2023-04-29T02:42:03.687Z,10.8
2023-04-29T02:44:03.413Z,12.5
2023-04-29T02:46:03.156Z,10.9
2023-04-29T02:48:02.503Z,14.2
2023-04-29T02:50:02.533Z,13.8
2023-04-29T02:52:02.863Z,12.4
2023-04-29T02:54:02.883Z,15.6
2023-04-29T02:56:02.768Z,11.7
2023-04-29T02:58:03.340Z,13.1
2023-04-29T03:00:03.937Z,12.6
2023-04-29T03:02:03.182Z,13.5
2023-04-29T03:04:02.694Z,11.6
2023-04-29T03:06:03.307Z,13.6
2023-04-29T03:08:04.259Z,11.6
2023-04-29T03:10:03.115Z,11.6
2023-04-29T03:12:02.791Z,12.4
2023-04-29T03:14:02.674Z,13.1
2023-04-29T03:16:02.535Z,12.4
2023-04-29T03:18:04.317Z,12.8
2023-04-29T03:20:02.664Z,13.3
2023-04-29T03:22:03.309Z,16.1
2023-04-29T03:24:02.495Z,15.4
2023-04-29T03:26:02.568Z,14.3
2023-04-29T03:28:02.683Z,12.6
2023-04-29T03:30:02.882Z,13.4
2023-04-29T03:32:03.203Z,13.9
2023-04-29T03:34:02.503Z,9.9
2023-04-29T03:36:02.772Z,19.8
2023-04-29T03:38:02.550Z,11.8
2023-04-29T03:40:02.643Z,11.7
2023-04-29T03:42:03.991Z,10.4
2023-04-29T03:44:02.584Z,11.4
2023-04-29T03:46:03.307Z,9.8
2023-04-29T03:48:03.016Z,16.0
2023-04-29T03:50:03.069Z,11.8
2023-04-29T03:54:16.832Z,14.5
2023-04-29T03:56:02.553Z,17.8
2023-04-29T03:58:02.577Z,9.6
2023-04-29T04:00:02.966Z,13.2
2023-04-29T04:02:02.525Z,14.6
2023-04-29T04:04:02.921Z,13.3
2023-04-29T04:06:02.731Z,15.1
2023-04-29T04:08:02.551Z,15.7
2023-04-29T04:10:02.287Z,10.6
2023-04-29T04:12:03.008Z,10.0
2023-04-29T04:14:02.366Z,11.8
2023-04-29T04:16:03.102Z,12.9
2023-04-29T04:18:02.708Z,12.2
2023-04-29T04:20:02.988Z,13.0
2023-04-29T04:22:04.376Z,17.1
2023-04-29T04:24:02.644Z,11.5
2023-04-29T04:26:03.149Z,11.7
2023-04-29T04:28:03.114Z,12.0
2023-04-29T04:30:03.772Z,10.5
2023-04-29T04:32:03.091Z,11.2
2023-04-29T04:34:02.937Z,12.1
2023-04-29T04:36:02.998Z,14.0
2023-04-29T04:38:02.861Z,13.2
2023-04-29T04:40:02.351Z,13.6
2023-04-29T04:42:03.221Z,12.7
2023-04-29T04:44:02.852Z,12.3
2023-04-29T04:46:11.326Z,13.3
2023-04-29T04:48:03.225Z,15.6
2023-04-29T04:50:03.876Z,14.8
2023-04-29T04:52:02.249Z,10.7
2023-04-29T04:54:03.159Z,12.7
2023-04-29T04:56:02.436Z,13.8
2023-04-29T04:58:02.345Z,12.7
2023-04-29T05:00:03.633Z,16.0
2023-04-29T05:02:03.092Z,13.1
2023-04-29T05:04:02.984Z,10.9
2023-04-29T05:06:02.685Z,11.6
2023-04-29T05:08:02.278Z,9.5
2023-04-29T05:10:02.524Z,14.9
2023-04-29T05:12:02.867Z,9.1
2023-04-29T05:14:02.665Z,17.2
2023-04-29T05:16:06.225Z,12.0
2023-04-29T05:18:03.182Z,15.6
2023-04-29T05:20:03.099Z,15.2
2023-04-29T05:22:02.279Z,16.5
2023-04-29T05:24:02.462Z,14.5
2023-04-29T05:26:03.261Z,12.8
2023-04-29T05:28:03.081Z,18.2
2023-04-29T05:30:03.183Z,17.2
2023-04-29T05:32:02.309Z,13.7
2023-04-29T05:34:02.423Z,12.0
2023-04-29T05:36:02.502Z,15.7
2023-04-29T05:38:02.322Z,15.9
2023-04-29T05:40:03.655Z,16.3
2023-04-29T05:42:02.824Z,11.7
2023-04-29T05:44:02.239Z,11.3
2023-04-29T05:46:02.310Z,12.8
2023-04-29T05:48:02.841Z,16.8
2023-04-29T05:50:02.304Z,13.7
2023-04-29T05:52:05.842Z,15.1
2023-04-29T05:54:02.926Z,12.5
2023-04-29T05:56:05.930Z,17.5
2023-04-29T05:58:02.527Z,12.0
2023-04-29T06:00:03.743Z,14.9
2023-04-29T06:02:02.485Z,16.4
2023-04-29T06:04:02.613Z,9.4
2023-04-29T06:06:03.385Z,12.4
2023-04-29T06:08:03.348Z,10.5
2023-04-29T06:10:02.490Z,14.0
2023-04-29T06:12:02.916Z,11.9
2023-04-29T06:14:03.390Z,12.2
2023-04-29T06:16:03.159Z,13.6
2023-04-29T06:18:02.575Z,10.6
2023-04-29T06:20:02.480Z,11.5
2023-04-29T06:22:02.281Z,11.7
2023-04-29T06:24:02.797Z,12.8
2023-04-29T06:26:02.306Z,12.7
2023-04-29T06:28:03.834Z,15.9
2023-04-29T06:30:02.543Z,12.4
2023-04-29T06:32:02.472Z,14.2
2023-04-29T06:34:03.109Z,13.6
2023-04-29T06:36:02.532Z,10.2
2023-04-29T06:38:02.383Z,12.0
2023-04-29T06:40:03.192Z,8.0
2023-04-29T06:42:03.100Z,14.6
2023-04-29T06:44:03.016Z,13.0
2023-04-29T06:46:03.084Z,10.4
2023-04-29T06:48:03.144Z,12.9
2023-04-29T06:50:03.370Z,13.3
2023-04-29T06:52:02.993Z,11.7
2023-04-29T06:54:03.151Z,9.3
2023-04-29T06:56:02.396Z,12.2
2023-04-29T06:58:03.910Z,12.2
2023-04-29T07:00:03.384Z,13.8
2023-04-29T07:02:02.320Z,10.4
2023-04-29T07:04:03.098Z,11.8
2023-04-29T07:06:02.487Z,9.5
2023-04-29T07:08:03.048Z,11.5
2023-04-29T07:10:03.240Z,13.6
2023-04-29T07:12:04.310Z,11.7
2023-04-29T07:14:02.307Z,12.0
2023-04-29T07:16:02.373Z,14.0
2023-04-29T07:18:04.912Z,13.6
2023-04-29T07:20:03.601Z,14.1
2023-04-29T07:22:03.479Z,13.2
2023-04-29T07:24:04.433Z,14.9
2023-04-29T07:26:10.677Z,15.7
2023-04-29T07:28:03.072Z,18.8
2023-04-29T07:30:03.853Z,12.9
2023-04-29T07:32:02.858Z,13.0
2023-04-29T07:34:02.373Z,11.4
2023-04-29T07:36:03.448Z,10.6
2023-04-29T07:38:02.272Z,12.8
2023-04-29T07:40:02.378Z,13.7
2023-04-29T07:42:04.211Z,11.7
2023-04-29T07:44:02.413Z,12.1
2023-04-29T07:46:02.853Z,11.4
2023-04-29T07:48:02.348Z,11.4
2023-04-29T07:50:02.951Z,14.4
2023-04-29T07:52:03.363Z,13.0
2023-04-29T07:54:02.640Z,13.3
2023-04-29T07:56:06.853Z,15.0
2023-04-29T07:58:02.854Z,15.0
2023-04-29T08:00:03.261Z,12.9
2023-04-29T08:02:02.906Z,17.1
2023-04-29T08:04:03.316Z,13.7
2023-04-29T08:06:03.610Z,16.3
2023-04-29T08:08:02.265Z,16.2
2023-04-29T08:10:02.323Z,15.6
2023-04-29T08:12:02.976Z,16.3
2023-04-29T08:14:02.267Z,14.4
2023-04-29T08:16:03.034Z,14.0
2023-04-29T08:18:03.249Z,20.0
2023-04-29T08:20:02.287Z,14.3
2023-04-29T08:22:03.669Z,17.5
2023-04-29T08:24:02.382Z,19.4
2023-04-29T08:26:02.917Z,14.8
2023-04-29T08:28:02.516Z,12.9
2023-04-29T08:30:02.587Z,12.5
2023-04-29T08:32:02.872Z,12.5
2023-04-29T08:34:02.325Z,12.8
2023-04-29T08:36:03.344Z,13.3
2023-04-29T08:38:02.264Z,13.5
2023-04-29T08:40:03.028Z,10.1
2023-04-29T08:42:08.210Z,19.5
2023-04-29T08:44:02.850Z,11.1
2023-04-29T08:46:03.157Z,12.2
2023-04-29T08:48:05.117Z,11.9
2023-04-29T08:50:04.653Z,15.6
2023-04-29T08:52:03.470Z,13.7
2023-04-29T08:54:02.803Z,11.4
2023-04-29T08:56:12.385Z,13.6
2023-04-29T08:58:03.121Z,11.0
2023-04-29T09:00:03.162Z,10.2
2023-04-29T09:02:04.275Z,12.7
2023-04-29T09:04:09.832Z,11.9
2023-04-29T09:06:03.825Z,10.9
2023-04-29T09:08:03.999Z,12.8
2023-04-29T09:10:04.336Z,13.8
2023-04-29T09:12:03.020Z,12.4
2023-04-29T09:14:03.939Z,11.1
2023-04-29T09:16:02.385Z,11.1
2023-04-29T09:18:02.606Z,14.4
2023-04-29T09:20:02.292Z,12.5
2023-04-29T09:22:04.017Z,10.5
2023-04-29T09:24:04.160Z,13.8
2023-04-29T09:26:02.870Z,14.3
2023-04-29T09:28:16.390Z,11.3
2023-04-29T09:30:02.962Z,11.7
2023-04-29T09:32:20.510Z,10.5
2023-04-29T09:34:02.285Z,12.1
2023-04-29T09:36:02.515Z,10.8
2023-04-29T09:38:12.547Z,12.3
2023-04-29T09:40:03.373Z,11.0
2023-04-29T09:42:02.833Z,8.5
2023-04-29T09:44:05.080Z,10.2
2023-04-29T09:46:02.373Z,13.7
2023-04-29T09:48:05.564Z,11.0
2023-04-29T09:50:13.570Z,10.6
2023-04-29T09:52:04.050Z,10.1
2023-04-29T09:54:20.224Z,10.8
2023-04-29T09:56:03.629Z,11.4
2023-04-29T09:58:02.398Z,10.6
2023-04-29T10:00:02.970Z,13.7
2023-04-29T10:02:08.664Z,8.9
2023-04-29T10:04:03.959Z,9.7
2023-04-29T10:06:04.224Z,10.5
2023-04-29T10:08:03.553Z,13.2
2023-04-29T10:10:04.800Z,10.5
2023-04-29T10:12:05.238Z,11.9
2023-04-29T10:14:05.004Z,10.4
2023-04-29T10:16:11.572Z,12.1
2023-04-29T10:18:12.333Z,11.5
2023-04-29T10:20:05.351Z,11.8
2023-04-29T10:22:08.875Z,11.1
2023-04-29T10:24:03.575Z,16.4
2023-04-29T10:26:03.657Z,13.5
2023-04-29T10:28:05.127Z,10.1
2023-04-29T10:30:04.548Z,10.7
2023-04-29T10:32:04.217Z,10.4
2023-04-29T10:34:03.157Z,12.6
2023-04-29T10:36:03.671Z,11.2
2023-04-29T10:38:08.683Z,9.9
2023-04-29T10:40:12.755Z,13.0
2023-04-29T10:42:05.545Z,14.7
2023-04-29T10:44:04.270Z,12.6
2023-04-29T10:46:21.229Z,9.2
2023-04-29T10:48:12.620Z,14.5
2023-04-29T10:50:04.193Z,17.0
2023-04-29T10:52:04.167Z,13.1
2023-04-29T10:54:06.496Z,13.2
2023-04-29T10:56:10.403Z,14.7
2023-04-29T10:58:04.291Z,10.2
2023-04-29T11:00:04.739Z,13.2
2023-04-29T11:02:03.297Z,12.3
2023-04-29T11:04:04.353Z,9.6
2023-04-29T11:06:10.063Z,12.7
2023-04-29T11:08:12.415Z,10.9
2023-04-29T11:10:03.284Z,12.8
2023-04-29T11:12:04.918Z,12.1
2023-04-29T11:14:03.512Z,11.4
2023-04-29T11:16:05.703Z,11.9
2023-04-29T11:18:02.639Z,10.7
2023-04-29T11:20:02.411Z,11.5
2023-04-29T11:22:13.519Z,8.6
2023-04-29T11:24:06.014Z,14.3
2023-04-29T11:26:03.415Z,15.1
2023-04-29T11:28:03.732Z,10.8
2023-04-29T11:30:04.783Z,8.7
2023-04-29T11:32:02.475Z,8.9
2023-04-29T11:34:04.762Z,12.3
2023-04-29T11:36:03.454Z,12.0
2023-04-29T11:38:03.528Z,13.3
2023-04-29T11:40:02.870Z,11.5
2023-04-29T11:42:05.062Z,12.9
2023-04-29T11:44:04.405Z,10.8
2023-04-29T11:46:02.348Z,12.2
2023-04-29T11:48:03.315Z,10.2
2023-04-29T11:50:04.956Z,12.6
2023-04-29T11:52:03.035Z,12.4
2023-04-29T11:54:02.934Z,9.6
2023-04-29T11:56:02.758Z,12.1
2023-04-29T11:58:05.003Z,11.7
2023-04-29T12:00:02.787Z,12.6
2023-04-29T12:02:02.549Z,10.9
2023-04-29T12:04:03.592Z,11.3
2023-04-29T12:06:03.705Z,12.5
2023-04-29T12:08:02.308Z,13.9
2023-04-29T12:10:02.358Z,16.4
2023-04-29T12:12:02.457Z,10.6
2023-04-29T12:14:05.620Z,11.0
2023-04-29T12:16:02.820Z,9.9
2023-04-29T12:18:03.424Z,11.2
2023-04-29T12:20:02.757Z,12.9
2023-04-29T12:22:05.583Z,12.2
2023-04-29T12:24:03.129Z,16.6
2023-04-29T12:26:03.859Z,10.5
2023-04-29T12:28:03.998Z,10.5
2023-04-29T12:30:02.510Z,12.0
2023-04-29T12:32:03.217Z,11.2
2023-04-29T12:34:06.385Z,11.6
2023-04-29T12:36:02.400Z,13.7
2023-04-29T12:38:02.553Z,11.0
2023-04-29T12:40:03.595Z,10.7
2023-04-29T12:42:02.960Z,12.1
2023-04-29T12:44:03.738Z,11.7
2023-04-29T12:46:03.734Z,10.8
2023-04-29T12:48:09.110Z,9.5
2023-04-29T12:50:02.653Z,11.4
2023-04-29T12:52:02.442Z,14.7
2023-04-29T12:54:06.017Z,10.0
2023-04-29T12:56:02.980Z,9.7
2023-04-29T12:58:03.775Z,9.6
2023-04-29T13:00:03.211Z,10.0
2023-04-29T13:02:02.747Z,9.1
2023-04-29T13:04:04.598Z,12.5
2023-04-29T13:06:02.557Z,10.0
2023-04-29T13:08:05.355Z,12.4
2023-04-29T13:10:03.057Z,10.9
2023-04-29T13:12:03.219Z,11.9
2023-04-29T13:14:02.481Z,9.1
2023-04-29T13:16:02.657Z,8.8
2023-04-29T13:18:03.404Z,9.4
2023-04-29T13:20:02.791Z,8.8
2023-04-29T13:22:02.406Z,8.2
2023-04-29T13:24:02.450Z,8.8
2023-04-29T13:26:02.538Z,7.0
2023-04-29T13:28:02.390Z,8.8
2023-04-29T13:30:03.606Z,10.7
2023-04-29T13:32:02.407Z,9.0
2023-04-29T13:34:02.329Z,8.1
2023-04-29T13:36:03.648Z,11.8
2023-04-29T13:38:03.584Z,10.2
2023-04-29T13:40:02.254Z,8.3
2023-04-29T13:42:03.361Z,6.3
2023-04-29T13:44:04.353Z,9.2
2023-04-29T13:46:03.052Z,12.1
2023-04-29T13:48:12.473Z,10.4
2023-04-29T14:00:10.555Z,8.3
2023-04-29T14:04:02.744Z,10.3
2023-04-29T14:06:03.254Z,9.3
2023-04-29T14:08:02.292Z,7.9
2023-04-29T14:10:02.298Z,9.4
2023-04-29T14:12:02.510Z,7.7
2023-04-29T14:14:03.132Z,7.0
2023-04-29T14:16:04.723Z,8.1
2023-04-29T14:18:02.570Z,11.0
2023-04-29T14:20:03.508Z,8.8
2023-04-29T14:22:03.015Z,11.5
2023-04-29T14:24:04.275Z,10.9
2023-04-29T14:26:22.551Z,10.2
2023-04-29T14:28:02.284Z,9.6
2023-04-29T14:30:04.198Z,12.1
2023-04-29T14:32:02.348Z,9.2
2023-04-29T14:34:02.741Z,6.9
2023-04-29T14:36:02.994Z,10.7
2023-04-29T14:38:03.828Z,10.2
2023-04-29T14:40:02.258Z,6.5
2023-04-29T14:42:04.179Z,8.6
2023-04-29T14:44:02.386Z,8.1
2023-04-29T14:46:03.263Z,7.7
2023-04-29T14:48:02.744Z,7.8
2023-04-29T14:50:03.653Z,9.9
2023-04-29T14:52:02.414Z,8.6
2023-04-29T14:54:03.099Z,7.4
2023-04-29T14:56:04.304Z,9.2
2023-04-29T14:58:04.551Z,9.2
2023-04-29T15:00:03.219Z,9.5
2023-04-29T15:02:02.905Z,8.7
2023-04-29T15:04:03.773Z,9.6
2023-04-29T15:06:03.116Z,9.5
2023-04-29T15:08:02.913Z,8.2
2023-04-29T15:10:03.437Z,10.3
2023-04-29T15:12:03.992Z,8.9
2023-04-29T15:14:03.016Z,10.9
2023-04-29T15:16:03.494Z,9.7
2023-04-29T15:18:02.622Z,9.7
2023-04-29T15:20:03.050Z,9.0
2023-04-29T15:22:02.332Z,12.1
2023-04-29T15:24:03.988Z,9.4
2023-04-29T15:26:02.771Z,9.6
2023-04-29T15:28:04.077Z,7.8
2023-04-29T15:30:03.266Z,13.1
2023-04-29T15:32:02.710Z,11.4
2023-04-29T15:34:02.927Z,9.3
2023-04-29T15:36:02.878Z,11.3
2023-04-29T15:38:02.509Z,9.6
2023-04-29T15:40:03.703Z,9.6
2023-04-29T15:42:03.318Z,12.3
2023-04-29T15:44:02.251Z,9.1
2023-04-29T15:46:03.336Z,11.4
2023-04-29T15:48:03.253Z,10.0
2023-04-29T15:50:03.177Z,8.5
2023-04-29T15:52:02.512Z,7.7
2023-04-29T15:54:04.485Z,8.0
2023-04-29T15:56:02.987Z,9.8
2023-04-29T15:58:02.414Z,9.1
2023-04-29T16:00:04.225Z,9.3
2023-04-29T16:02:03.938Z,11.5
2023-04-29T16:04:02.817Z,9.4
2023-04-29T16:06:02.505Z,9.3
2023-04-29T16:08:02.270Z,10.3
2023-04-29T16:10:02.278Z,14.2
2023-04-29T16:12:02.550Z,10.5
2023-04-29T16:14:02.509Z,11.4
2023-04-29T16:16:03.141Z,11.6
2023-04-29T16:18:02.418Z,8.9
2023-04-29T16:20:02.438Z,7.6
2023-04-29T16:22:02.474Z,9.3
2023-04-29T16:24:02.504Z,9.9
2023-04-29T16:26:02.770Z,10.2
2023-04-29T16:28:02.902Z,11.1
2023-04-29T16:30:03.689Z,10.5
2023-04-29T16:32:02.449Z,10.9
2023-04-29T16:34:02.739Z,9.2
2023-04-29T16:36:03.048Z,10.5
2023-04-29T16:38:02.874Z,10.7
2023-04-29T16:40:03.279Z,8.7
2023-04-29T16:42:03.376Z,12.3
2023-04-29T16:44:02.348Z,8.7
2023-04-29T16:46:02.388Z,10.5
2023-04-29T16:48:02.768Z,11.2
2023-04-29T16:50:03.470Z,11.4
2023-04-29T16:52:02.422Z,8.6
2023-04-29T16:54:02.505Z,8.4
2023-04-29T16:56:02.910Z,9.3
2023-04-29T16:58:03.179Z,9.2
2023-04-29T17:00:03.465Z,11.1
2023-04-29T17:02:03.138Z,7.8
2023-04-29T17:04:03.573Z,8.1
2023-04-29T17:06:05.977Z,9.3
2023-04-29T17:08:02.860Z,9.3
2023-04-29T17:10:03.466Z,8.9
2023-04-29T17:12:03.314Z,10.5
2023-04-29T17:14:03.038Z,7.4
2023-04-29T17:16:02.991Z,8.8
2023-04-29T17:18:02.534Z,9.7
2023-04-29T17:20:03.258Z,11.5
2023-04-29T17:22:02.288Z,8.9
2023-04-29T17:24:02.374Z,9.1
2023-04-29T17:26:03.882Z,9.8
2023-04-29T17:28:03.143Z,8.8
2023-04-29T17:30:02.325Z,8.7
2023-04-29T17:32:09.472Z,9.4
2023-04-29T17:34:11.701Z,7.6
2023-04-29T17:36:03.157Z,7.7
2023-04-29T17:38:03.381Z,8.7
2023-04-29T17:40:02.969Z,10.3
2023-04-29T17:42:02.459Z,9.2
2023-04-29T17:44:02.288Z,10.9
2023-04-29T17:46:02.443Z,9.1
2023-04-29T17:48:02.360Z,9.3
2023-04-29T17:50:03.401Z,10.0
2023-04-29T17:52:03.666Z,9.8
2023-04-29T17:54:04.952Z,10.3
2023-04-29T17:56:02.291Z,10.7
2023-04-29T17:58:02.349Z,8.6
2023-04-29T18:00:02.849Z,10.0
2023-04-29T18:02:02.825Z,8.3
2023-04-29T18:04:03.395Z,10.3
2023-04-29T18:06:02.675Z,10.3
2023-04-29T18:08:02.256Z,7.6
2023-04-29T18:10:02.560Z,9.1
2023-04-29T18:12:02.645Z,8.6
2023-04-29T18:14:02.848Z,8.0
2023-04-29T18:16:02.887Z,8.0
2023-04-29T18:18:03.352Z,10.5
2023-04-29T18:20:03.447Z,6.9
2023-04-29T18:22:02.390Z,11.5
2023-04-29T18:24:02.327Z,8.2
2023-04-29T18:26:02.766Z,9.0
2023-04-29T18:28:19.286Z,7.3
2023-04-29T18:30:02.865Z,7.7
2023-04-29T18:32:02.425Z,10.2
2023-04-29T18:34:02.772Z,9.0
2023-04-29T18:36:02.436Z,10.6
2023-04-29T18:38:03.146Z,9.9
2023-04-29T18:40:02.320Z,7.8
2023-04-29T18:42:03.648Z,10.2
2023-04-29T18:44:02.927Z,9.9
2023-04-29T18:46:03.040Z,8.3
2023-04-29T18:48:04.999Z,8.0
2023-04-29T18:50:03.939Z,7.1
2023-04-29T18:52:02.682Z,9.2
2023-04-29T18:54:03.235Z,9.0
2023-04-29T18:56:02.905Z,6.8
2023-04-29T18:58:02.331Z,8.0
2023-04-29T19:00:03.477Z,9.1
2023-04-29T19:02:03.750Z,9.6
2023-04-29T19:04:04.003Z,9.5
2023-04-29T19:06:02.505Z,6.3
2023-04-29T19:08:02.290Z,9.4
2023-04-29T19:10:03.423Z,9.9
2023-04-29T19:12:04.020Z,7.6
2023-04-29T19:14:03.454Z,8.2
2023-04-29T19:16:03.039Z,8.2
2023-04-29T19:18:02.703Z,9.4
2023-04-29T19:20:03.076Z,8.9
2023-04-29T19:22:04.701Z,7.9
2023-04-29T19:24:02.497Z,7.3
2023-04-29T19:26:02.522Z,8.7
2023-04-29T19:28:02.352Z,9.6
2023-04-29T19:30:02.347Z,8.7
2023-04-29T19:32:03.009Z,11.6
2023-04-29T19:34:03.389Z,9.5
2023-04-29T19:36:03.644Z,9.8
2023-04-29T19:38:02.587Z,6.7
2023-04-29T19:40:03.214Z,8.2
2023-04-29T19:42:03.632Z,7.6
2023-04-29T19:44:02.444Z,7.7
2023-04-29T19:46:02.725Z,8.4
2023-04-29T19:48:03.048Z,7.1
2023-04-29T19:50:04.290Z,6.6
2023-04-29T19:52:02.324Z,8.0
2023-04-29T19:54:02.374Z,10.0
2023-04-29T19:56:02.370Z,8.8
2023-04-29T19:58:02.534Z,9.2
2023-04-29T20:00:04.005Z,8.2
2023-04-29T20:02:02.549Z,6.5
2023-04-29T20:04:02.597Z,7.9
2023-04-29T20:06:02.622Z,7.5
2023-04-29T20:08:03.133Z,9.4
2023-04-29T20:10:02.812Z,7.4
2023-04-29T20:12:03.283Z,11.0
2023-04-29T20:14:03.157Z,9.7
2023-04-29T20:16:02.412Z,6.0
2023-04-29T20:18:02.457Z,6.1
2023-04-29T20:20:03.148Z,9.5
2023-04-29T20:22:03.022Z,9.6
2023-04-29T20:24:02.315Z,7.6
2023-04-29T20:26:03.281Z,7.7
2023-04-29T20:28:02.339Z,8.1
2023-04-29T20:30:03.438Z,7.3
2023-04-29T20:32:03.852Z,8.1
2023-04-29T20:34:02.577Z,9.2
2023-04-29T20:36:06.026Z,10.0
2023-04-29T20:38:03.092Z,7.0
2023-04-29T20:40:02.459Z,9.2
2023-04-29T20:42:02.688Z,7.3
2023-04-29T20:44:03.042Z,5.9
2023-04-29T20:46:02.948Z,7.4
2023-04-29T20:48:03.251Z,9.1
2023-04-29T20:50:04.020Z,7.3
2023-04-29T20:52:05.681Z,9.1
2023-04-29T20:54:02.461Z,8.7
2023-04-29T20:56:02.620Z,7.7
2023-04-29T20:58:02.443Z,10.4
2023-04-29T21:00:02.385Z,8.5
2023-04-29T21:02:02.515Z,9.9
2023-04-29T21:04:02.492Z,10.9
2023-04-29T21:06:02.964Z,8.0
2023-04-29T21:08:02.353Z,7.4
2023-04-29T21:10:02.322Z,7.4
2023-04-29T21:12:02.325Z,9.2
2023-04-29T21:14:02.501Z,9.9
2023-04-29T21:16:03.372Z,9.2
2023-04-29T21:18:02.539Z,8.3
2023-04-29T21:20:02.329Z,9.3
2023-04-29T21:22:02.628Z,8.2
2023-04-29T21:24:02.504Z,9.3
2023-04-29T21:26:02.701Z,8.6
2023-04-29T21:28:03.383Z,8.1
2023-04-29T21:30:02.399Z,9.0
2023-04-29T21:32:02.404Z,10.2
2023-04-29T21:34:02.698Z,8.8
2023-04-29T21:36:02.300Z,9.4
2023-04-29T21:38:03.209Z,9.6
2023-04-29T21:40:03.667Z,7.0
2023-04-29T21:42:03.522Z,8.8
2023-04-29T21:44:03.940Z,7.5
2023-04-29T21:46:02.362Z,6.7
2023-04-29T21:48:13.608Z,7.2
2023-04-29T21:50:03.266Z,7.8
2023-04-29T21:52:02.579Z,10.2
2023-04-29T21:54:05.480Z,7.2
2023-04-29T21:56:02.309Z,8.7
2023-04-29T21:58:02.512Z,8.7
2023-04-29T22:00:10.298Z,6.4
2023-04-29T22:02:11.910Z,7.1
2023-04-29T22:04:02.885Z,7.1
2023-04-29T22:06:02.375Z,7.1
2023-04-29T22:08:06.475Z,6.9
2023-04-29T22:10:02.814Z,8.6
2023-04-29T22:12:02.654Z,8.8
2023-04-29T22:14:03.286Z,8.9
2023-04-29T22:16:02.415Z,8.5
2023-04-29T22:18:02.449Z,10.3
2023-04-29T22:20:03.932Z,7.8
2023-04-29T22:22:02.506Z,8.9
2023-04-29T22:24:02.403Z,7.4
2023-04-29T22:26:02.889Z,8.0
2023-04-29T22:28:02.280Z,7.8
2023-04-29T22:30:03.098Z,8.4
2023-04-29T22:32:02.617Z,8.4
2023-04-29T22:34:02.626Z,9.9
2023-04-29T22:36:03.514Z,8.8
2023-04-29T22:38:02.984Z,7.8
2023-04-29T22:40:02.964Z,9.7
2023-04-29T22:42:04.066Z,8.5
2023-04-29T22:44:02.497Z,8.4
2023-04-29T22:46:03.039Z,8.5
2023-04-29T22:48:02.576Z,8.6
2023-04-29T22:50:02.594Z,9.1
2023-04-29T22:52:02.276Z,8.8
2023-04-29T22:54:02.788Z,8.5
2023-04-29T22:56:02.632Z,8.5
2023-04-29T22:58:02.438Z,7.0
2023-04-29T23:00:03.072Z,7.4
2023-04-29T23:02:02.460Z,7.4
2023-04-29T23:04:03.019Z,9.0
2023-04-29T23:06:02.946Z,7.2
2023-04-29T23:08:03.879Z,8.4
2023-04-29T23:10:02.429Z,8.5
2023-04-29T23:12:02.678Z,7.0
2023-04-29T23:14:02.467Z,8.5
2023-04-29T23:16:03.092Z,7.2
2023-04-29T23:18:02.314Z,6.5
2023-04-29T23:20:02.415Z,7.9
2023-04-29T23:22:06.685Z,8.2
2023-04-29T23:24:03.261Z,10.4
2023-04-29T23:26:02.437Z,8.0
2023-04-29T23:28:02.300Z,6.4
2023-04-29T23:30:02.335Z,6.7
2023-04-29T23:32:03.097Z,7.6
2023-04-29T23:34:02.303Z,8.2
2023-04-29T23:36:02.888Z,8.6
2023-04-29T23:38:02.679Z,7.8
2023-04-29T23:40:04.154Z,6.8
2023-04-29T23:42:03.313Z,6.8
2023-04-29T23:44:02.341Z,7.8
2023-04-29T23:46:02.589Z,10.2
2023-04-29T23:48:02.544Z,7.8
2023-04-29T23:50:03.531Z,10.1
2023-04-29T23:52:02.289Z,6.4
2023-04-29T23:54:02.725Z,8.2
2023-04-29T23:56:02.800Z,8.5
2023-04-29T23:58:02.368Z,7.6
